createdAt,value
2023-05-19T00:01:31.171Z,10.98
2023-05-19T00:04:02.542Z,10.93
2023-05-19T00:06:32.050Z,10.95
2023-05-19T00:09:05.507Z,10.90
2023-05-19T00:11:33.918Z,10.89
2023-05-19T00:14:01.455Z,10.84
2023-05-19T00:16:30.535Z,10.84
2023-05-19T00:19:03.095Z,10.75
2023-05-19T00:21:31.407Z,10.76
2023-05-19T00:23:59.242Z,10.69
2023-05-19T00:26:28.002Z,10.67
2023-05-19T00:28:55.222Z,10.64
2023-05-19T00:31:22.368Z,10.69
2023-05-19T00:33:49.415Z,10.66
2023-05-19T00:36:16.424Z,10.57
2023-05-19T00:38:43.737Z,10.59
2023-05-19T00:41:11.063Z,10.59
2023-05-19T00:43:38.047Z,10.50
2023-05-19T00:46:05.208Z,10.50
2023-05-19T00:48:32.211Z,10.57
2023-05-19T00:51:04.721Z,10.48
2023-05-19T00:53:35.054Z,10.46
2023-05-19T00:56:03.157Z,10.51
2023-05-19T00:58:32.726Z,10.48
2023-05-19T01:01:06.934Z,10.43
2023-05-19T01:03:36.326Z,10.37
2023-05-19T01:06:07.948Z,10.36
2023-05-19T01:08:37.679Z,10.31
2023-05-19T01:11:06.940Z,10.35
2023-05-19T01:13:36.313Z,10.28
2023-05-19T01:16:32.166Z,10.31
2023-05-19T01:19:50.812Z,10.24
2023-05-19T01:22:56.594Z,10.19
2023-05-19T01:25:55.998Z,10.14
2023-05-19T01:28:59.057Z,10.15
2023-05-19T01:31:27.792Z,10.12
2023-05-19T01:33:55.600Z,10.07
2023-05-19T01:36:24.045Z,10.08
2023-05-19T01:38:54.431Z,10.13
2023-05-19T01:41:23.086Z,10.07
2023-05-19T01:43:51.138Z,9.99
2023-05-19T01:46:18.865Z,9.98
2023-05-19T01:48:46.916Z,9.97
2023-05-19T01:51:14.178Z,10.01
2023-05-19T01:53:41.331Z,9.98
2023-05-19T01:56:08.473Z,10.00
2023-05-19T01:58:59.548Z,9.94
2023-05-19T02:01:38.381Z,9.89
2023-05-19T02:04:50.940Z,9.90
2023-05-19T02:07:33.995Z,9.92
2023-05-19T02:10:17.128Z,9.91
2023-05-19T02:12:46.160Z,9.90
2023-05-19T02:15:21.496Z,9.82
2023-05-19T02:17:52.007Z,9.84
2023-05-19T02:20:19.149Z,9.83
2023-05-19T02:22:46.393Z,9.87
2023-05-19T02:25:13.513Z,9.79
2023-05-19T02:27:41.554Z,9.75
2023-05-19T02:30:10.159Z,9.74
2023-05-19T02:32:37.404Z,9.68
2023-05-19T02:35:05.105Z,9.67
2023-05-19T02:37:32.606Z,9.68
2023-05-19T02:39:59.710Z,9.67
2023-05-19T02:42:26.732Z,9.69
2023-05-19T02:44:55.266Z,9.58
2023-05-19T02:47:22.512Z,9.48
2023-05-19T02:49:49.536Z,9.45
2023-05-19T02:52:16.525Z,9.48
2023-05-19T02:54:43.575Z,9.48
2023-05-19T02:57:11.256Z,9.44
2023-05-19T02:59:38.397Z,9.47
2023-05-19T03:02:05.619Z,9.39
2023-05-19T03:04:32.719Z,9.31
2023-05-19T03:06:59.782Z,9.33
2023-05-19T03:09:26.965Z,9.36
2023-05-19T03:11:53.998Z,9.30
2023-05-19T03:14:24.170Z,9.26
2023-05-19T03:16:51.535Z,9.20
2023-05-19T03:19:18.732Z,9.15
2023-05-19T03:21:46.386Z,9.16
2023-05-19T03:24:13.803Z,9.21
2023-05-19T03:26:41.078Z,9.19
2023-05-19T03:29:08.371Z,9.14
2023-05-19T03:31:35.446Z,9.09
2023-05-19T03:34:03.239Z,9.08
2023-05-19T03:36:33.080Z,9.08
2023-05-19T03:39:00.116Z,9.15
2023-05-19T03:41:27.128Z,9.16
2023-05-19T03:43:54.145Z,9.20
2023-05-19T03:46:21.424Z,9.15
2023-05-19T03:48:48.740Z,9.03
2023-05-19T03:51:15.802Z,8.95
2023-05-19T03:53:42.841Z,8.95
2023-05-19T03:56:13.798Z,8.96
2023-05-19T03:58:44.435Z,8.91
2023-05-19T04:01:11.832Z,8.94
2023-05-19T04:03:39.073Z,8.91
2023-05-19T04:06:06.570Z,8.96
2023-05-19T04:08:33.624Z,9.01
2023-05-19T04:11:00.761Z,8.91
2023-05-19T04:13:27.787Z,8.91
2023-05-19T04:15:54.923Z,8.93
2023-05-19T04:18:22.030Z,8.96
2023-05-19T04:20:49.153Z,8.96
2023-05-19T04:23:16.185Z,8.88
2023-05-19T04:25:43.415Z,8.90
2023-05-19T04:28:10.501Z,8.91
2023-05-19T04:30:38.670Z,8.94
2023-05-19T04:33:05.788Z,8.92
2023-05-19T04:35:33.186Z,8.91
2023-05-19T04:38:01.680Z,8.92
2023-05-19T04:40:31.206Z,8.96
2023-05-19T04:42:59.144Z,9.00
2023-05-19T04:45:26.280Z,8.97
2023-05-19T04:47:57.787Z,9.04
2023-05-19T04:50:25.276Z,9.09
2023-05-19T04:52:52.355Z,9.07
2023-05-19T04:55:19.779Z,9.12
2023-05-19T04:57:47.042Z,9.17
2023-05-19T05:00:14.782Z,9.21
2023-05-19T05:02:43.000Z,9.21
2023-05-19T05:05:10.309Z,9.32
2023-05-19T05:07:37.337Z,9.38
2023-05-19T05:10:05.174Z,9.48
2023-05-19T05:12:33.100Z,9.53
2023-05-19T05:15:00.936Z,9.53
2023-05-19T05:17:28.609Z,9.63
2023-05-19T05:19:56.337Z,9.71
2023-05-19T05:22:23.717Z,9.83
2023-05-19T05:24:51.156Z,9.78
2023-05-19T05:27:18.355Z,9.91
2023-05-19T05:29:45.417Z,9.96
2023-05-19T05:32:12.461Z,10.04
2023-05-19T05:34:41.076Z,10.10
2023-05-19T05:37:08.113Z,10.15
2023-05-19T05:39:35.165Z,10.21
2023-05-19T05:42:02.288Z,10.39
2023-05-19T05:44:29.336Z,10.43
2023-05-19T05:46:56.779Z,12.61
2023-05-19T05:49:24.214Z,14.06
2023-05-19T05:52:04.960Z,14.94
2023-05-19T05:54:33.919Z,15.57
2023-05-19T05:57:02.573Z,16.00
2023-05-19T05:59:29.684Z,16.21
2023-05-19T06:01:56.743Z,16.33
2023-05-19T06:04:23.786Z,16.45
2023-05-19T06:06:52.648Z,16.45
2023-05-19T06:09:19.682Z,16.56
2023-05-19T06:11:46.663Z,16.64
2023-05-19T06:14:13.702Z,16.67
2023-05-19T06:16:41.054Z,16.76
2023-05-19T06:19:08.253Z,16.83
2023-05-19T06:21:35.415Z,16.91
2023-05-19T06:24:02.461Z,16.92
2023-05-19T06:26:29.573Z,17.03
2023-05-19T06:28:57.072Z,17.12
2023-05-19T06:31:26.532Z,17.14
2023-05-19T06:33:53.839Z,17.12
2023-05-19T06:36:21.088Z,17.18
2023-05-19T06:38:48.116Z,17.16
2023-05-19T06:41:15.121Z,17.16
2023-05-19T06:43:43.400Z,17.22
2023-05-19T06:46:12.261Z,17.35
2023-05-19T06:48:39.516Z,17.41
2023-05-19T06:51:06.600Z,17.44
2023-05-19T06:53:34.341Z,17.46
2023-05-19T06:56:01.389Z,17.54
2023-05-19T06:58:28.771Z,17.59
2023-05-19T07:00:55.831Z,17.63
2023-05-19T07:03:23.051Z,17.67
2023-05-19T07:05:51.496Z,17.69
2023-05-19T07:08:18.610Z,17.72
2023-05-19T07:10:45.751Z,17.72
2023-05-19T07:13:12.774Z,17.73
2023-05-19T07:15:39.993Z,17.76
2023-05-19T07:18:07.107Z,17.79
2023-05-19T07:20:34.368Z,17.81
2023-05-19T07:23:02.791Z,17.86
2023-05-19T07:25:30.656Z,17.83
2023-05-19T07:27:58.092Z,17.86
2023-05-19T07:30:27.992Z,17.87
2023-05-19T07:32:55.599Z,17.88
2023-05-19T07:35:22.817Z,17.92
2023-05-19T07:37:51.948Z,17.94
2023-05-19T07:40:19.502Z,17.95
2023-05-19T07:42:46.509Z,17.99
2023-05-19T07:45:13.519Z,17.99
2023-05-19T07:47:41.180Z,18.02
2023-05-19T07:50:08.594Z,18.02
2023-05-19T07:52:35.726Z,18.05
2023-05-19T07:55:04.661Z,18.07
2023-05-19T07:57:32.488Z,18.04
2023-05-19T07:59:59.522Z,18.06
2023-05-19T08:02:26.710Z,18.06
2023-05-19T08:04:54.619Z,18.10
2023-05-19T08:07:21.779Z,18.09
2023-05-19T08:09:48.787Z,18.12
2023-05-19T08:12:15.788Z,18.09
2023-05-19T08:14:42.943Z,18.09
2023-05-19T08:17:10.044Z,18.12
2023-05-19T08:19:37.046Z,18.14
2023-05-19T08:22:04.294Z,18.13
2023-05-19T08:24:32.873Z,18.15
2023-05-19T08:27:00.240Z,18.17
2023-05-19T08:29:27.242Z,18.18
2023-05-19T08:31:54.478Z,18.15
2023-05-19T08:34:22.372Z,18.15
2023-05-19T08:36:49.538Z,18.15
2023-05-19T08:39:18.675Z,18.16
2023-05-19T08:41:45.901Z,18.16
2023-05-19T08:44:13.436Z,18.18
2023-05-19T08:46:41.290Z,18.19
2023-05-19T08:49:16.164Z,18.22
2023-05-19T08:52:06.249Z,18.22
2023-05-19T08:54:46.188Z,18.23
2023-05-19T08:57:14.237Z,18.25
2023-05-19T08:59:43.335Z,18.26
2023-05-19T09:02:13.437Z,18.26
2023-05-19T09:04:41.648Z,18.26
2023-05-19T09:07:09.424Z,18.27
2023-05-19T09:09:36.548Z,18.29
2023-05-19T09:12:04.158Z,18.29
2023-05-19T09:14:32.680Z,18.30
2023-05-19T09:16:59.920Z,18.30
2023-05-19T09:19:30.243Z,18.32
2023-05-19T09:22:03.513Z,18.34
2023-05-19T09:24:31.709Z,18.33
2023-05-19T09:27:00.304Z,18.33
2023-05-19T09:29:27.582Z,18.34
2023-05-19T09:32:00.868Z,18.35
2023-05-19T09:34:28.508Z,18.34
2023-05-19T09:36:55.775Z,18.37
2023-05-19T09:39:24.271Z,18.36
2023-05-19T09:41:58.853Z,18.36
2023-05-19T09:44:30.672Z,18.39
2023-05-19T09:46:58.899Z,18.40
2023-05-19T09:49:31.537Z,18.40
2023-05-19T09:51:59.912Z,18.41
2023-05-19T09:54:29.726Z,18.42
2023-05-19T09:57:03.862Z,18.40
2023-05-19T09:59:33.351Z,18.41
2023-05-19T10:02:02.709Z,18.41
2023-05-19T10:04:31.387Z,18.42
2023-05-19T10:06:59.812Z,18.42
2023-05-19T10:09:29.749Z,18.44
2023-05-19T10:11:59.121Z,18.45
2023-05-19T10:14:29.588Z,18.46
2023-05-19T10:16:58.914Z,18.47
2023-05-19T10:19:28.934Z,18.49
2023-05-19T10:21:56.844Z,18.48
2023-05-19T10:24:23.953Z,18.48
2023-05-19T10:27:03.693Z,18.49
2023-05-19T10:29:37.849Z,18.49
2023-05-19T10:32:13.924Z,18.50
2023-05-19T10:35:19.168Z,18.51
2023-05-19T10:38:03.625Z,18.50
2023-05-19T10:41:10.379Z,18.52
2023-05-19T10:43:49.455Z,18.53
2023-05-19T10:46:16.657Z,18.54
2023-05-19T10:48:46.727Z,18.53
2023-05-19T10:51:15.730Z,18.53
2023-05-19T10:53:50.137Z,18.55
2023-05-19T10:56:36.425Z,18.58
2023-05-19T10:59:04.170Z,18.58
2023-05-19T11:01:37.304Z,18.59
2023-05-19T11:04:14.114Z,18.58
2023-05-19T11:06:41.824Z,18.60
2023-05-19T11:09:22.549Z,18.60
2023-05-19T11:11:57.128Z,18.59
2023-05-19T11:14:28.013Z,18.61
2023-05-19T11:17:00.040Z,18.60
2023-05-19T11:19:32.547Z,18.63
2023-05-19T11:22:11.423Z,18.64
2023-05-19T11:24:46.265Z,18.64
2023-05-19T11:27:28.371Z,18.65
2023-05-19T11:29:59.329Z,18.66
2023-05-19T11:32:33.752Z,18.65
2023-05-19T11:35:02.154Z,18.65
2023-05-19T11:37:33.361Z,18.66
2023-05-19T11:40:05.012Z,18.69
2023-05-19T11:42:33.109Z,18.70
2023-05-19T11:45:00.777Z,18.70
2023-05-19T11:47:28.417Z,18.70
2023-05-19T11:49:58.938Z,18.71
2023-05-19T11:52:27.649Z,18.76
2023-05-19T11:54:54.773Z,18.74
2023-05-19T11:57:22.534Z,18.73
2023-05-19T11:59:52.470Z,18.74
2023-05-19T12:02:22.651Z,18.74
2023-05-19T12:04:49.942Z,18.76
2023-05-19T12:07:18.962Z,18.76
2023-05-19T12:09:47.609Z,18.76
2023-05-19T12:12:22.825Z,18.75
2023-05-19T12:14:53.456Z,18.78
2023-05-19T12:17:23.900Z,18.80
2023-05-19T12:19:51.658Z,18.80
2023-05-19T12:22:19.457Z,18.79
2023-05-19T12:24:47.276Z,18.81
2023-05-19T12:27:26.565Z,18.81
2023-05-19T12:30:00.157Z,18.83
2023-05-19T12:32:28.934Z,18.84
2023-05-19T12:34:57.262Z,18.85
2023-05-19T12:37:28.000Z,18.86
2023-05-19T12:39:56.674Z,18.85
2023-05-19T12:42:26.601Z,18.87
2023-05-19T12:44:54.800Z,18.88
2023-05-19T12:47:22.795Z,18.90
2023-05-19T12:49:58.990Z,18.90
2023-05-19T12:52:28.142Z,18.91
2023-05-19T12:55:07.709Z,18.93
2023-05-19T12:57:39.725Z,18.93
2023-05-19T13:00:21.056Z,18.94
2023-05-19T13:03:07.742Z,18.95
2023-05-19T13:05:43.591Z,18.96
2023-05-19T13:08:14.333Z,18.98
2023-05-19T13:10:43.716Z,18.95
2023-05-19T13:13:11.392Z,18.97
2023-05-19T13:15:43.244Z,18.98
2023-05-19T13:18:12.413Z,18.99
2023-05-19T13:20:41.941Z,18.99
2023-05-19T13:23:11.347Z,18.99
2023-05-19T13:25:39.038Z,19.02
2023-05-19T13:28:06.804Z,19.02
2023-05-19T13:30:36.203Z,19.03
2023-05-19T13:33:03.679Z,19.03
2023-05-19T13:35:36.804Z,19.05
2023-05-19T13:38:11.744Z,19.04
2023-05-19T13:40:40.264Z,19.08
2023-05-19T13:43:08.738Z,19.08
2023-05-19T13:45:36.266Z,19.07
2023-05-19T13:48:03.482Z,19.10
2023-05-19T13:50:30.775Z,19.09
2023-05-19T13:52:57.904Z,19.08
2023-05-19T13:55:27.178Z,19.08
2023-05-19T13:57:54.630Z,19.10
2023-05-19T14:00:21.822Z,19.12
2023-05-19T14:02:48.997Z,19.12
2023-05-19T14:05:16.439Z,19.14
2023-05-19T14:07:44.655Z,19.13
2023-05-19T14:10:11.957Z,19.14
2023-05-19T14:12:54.867Z,19.17
2023-05-19T14:15:27.282Z,19.17
2023-05-19T14:17:54.514Z,19.18
2023-05-19T14:20:21.935Z,19.21
2023-05-19T14:22:48.947Z,19.17
2023-05-19T14:25:16.261Z,19.19
2023-05-19T14:27:43.264Z,19.21
2023-05-19T14:30:11.144Z,19.22
2023-05-19T14:32:38.920Z,19.20
2023-05-19T14:35:06.652Z,19.20
2023-05-19T14:37:34.140Z,19.21
2023-05-19T14:40:01.203Z,19.23
2023-05-19T14:42:28.225Z,19.24
2023-05-19T14:44:55.992Z,19.24
2023-05-19T14:47:22.995Z,19.25
2023-05-19T14:49:50.101Z,19.23
2023-05-19T14:52:17.887Z,19.19
2023-05-19T14:54:44.885Z,19.21
2023-05-19T14:57:12.103Z,19.24
2023-05-19T14:59:39.489Z,19.24
2023-05-19T15:02:07.166Z,24.50
2023-05-19T15:04:34.300Z,24.08
2023-05-19T15:09:31.847Z,23.81
2023-05-19T15:12:01.255Z,23.56
2023-05-19T15:14:30.575Z,23.85
2023-05-19T15:16:58.559Z,24.26
2023-05-19T15:19:26.189Z,23.94
2023-05-19T15:21:53.362Z,23.93
2023-05-19T15:24:20.442Z,23.70
2023-05-19T15:26:47.622Z,23.91
2023-05-19T15:29:14.662Z,24.13
2023-05-19T15:31:41.937Z,24.03
2023-05-19T15:34:09.370Z,23.98
2023-05-19T15:36:36.584Z,23.93
2023-05-19T15:39:03.892Z,24.12
2023-05-19T15:41:31.020Z,23.93
2023-05-19T15:44:00.390Z,23.68
2023-05-19T15:46:28.394Z,23.91
2023-05-19T15:48:55.897Z,23.81
2023-05-19T15:51:23.742Z,23.64
2023-05-19T15:53:50.765Z,23.80
2023-05-19T15:56:19.404Z,24.00
2023-05-19T15:58:46.499Z,23.83
2023-05-19T16:01:15.274Z,23.91
2023-05-19T16:03:42.675Z,23.65
2023-05-19T16:06:09.911Z,23.71
2023-05-19T16:08:38.021Z,23.80
2023-05-19T16:11:05.691Z,23.83
2023-05-19T16:13:33.909Z,23.80
2023-05-19T16:16:01.313Z,23.53
2023-05-19T16:18:31.085Z,23.69
2023-05-19T16:20:58.262Z,23.74
2023-05-19T16:23:25.345Z,23.80
2023-05-19T16:25:53.071Z,24.10
2023-05-19T16:28:22.385Z,23.74
2023-05-19T16:30:50.404Z,23.45
2023-05-19T16:33:17.462Z,23.32
2023-05-19T16:35:44.698Z,23.33
2023-05-19T16:38:11.755Z,23.57
2023-05-19T16:40:38.813Z,23.29
2023-05-19T16:43:05.930Z,23.22
2023-05-19T16:45:33.005Z,23.27
2023-05-19T16:48:00.233Z,23.23
2023-05-19T16:50:27.462Z,23.06
2023-05-19T16:52:54.529Z,23.19
2023-05-19T16:55:22.696Z,23.12
2023-05-19T16:57:49.695Z,23.06
2023-05-19T17:00:16.977Z,23.05
2023-05-19T17:02:45.332Z,23.19
2023-05-19T17:05:12.368Z,23.23
2023-05-19T17:07:39.424Z,23.07
2023-05-19T17:10:07.086Z,23.01
2023-05-19T17:12:34.734Z,23.06
2023-05-19T17:15:04.199Z,23.09
2023-05-19T17:17:31.410Z,22.87
2023-05-19T17:19:58.558Z,23.00
2023-05-19T17:22:25.701Z,22.81
2023-05-19T17:24:52.888Z,22.79
2023-05-19T17:27:20.007Z,22.76
2023-05-19T17:29:47.037Z,22.89
2023-05-19T17:32:14.100Z,22.77
2023-05-19T17:34:41.860Z,22.82
2023-05-19T17:37:08.870Z,22.66
2023-05-19T17:39:35.906Z,22.51
2023-05-19T17:42:03.038Z,22.44
2023-05-19T17:44:30.067Z,22.53
2023-05-19T17:46:57.176Z,22.51
2023-05-19T17:49:25.701Z,22.62
2023-05-19T17:51:53.146Z,22.32
2023-05-19T17:54:20.531Z,22.18
2023-05-19T17:56:48.928Z,22.13
2023-05-19T17:59:16.567Z,21.98
2023-05-19T18:01:43.953Z,22.15
2023-05-19T18:04:13.217Z,22.05
2023-05-19T18:06:46.121Z,21.88
2023-05-19T18:09:15.682Z,21.90
2023-05-19T18:11:42.700Z,21.83
2023-05-19T18:14:09.722Z,21.64
2023-05-19T18:16:36.843Z,21.74
2023-05-19T18:19:04.188Z,21.76
2023-05-19T18:21:31.415Z,21.64
2023-05-19T18:24:00.580Z,21.58
2023-05-19T18:26:27.588Z,21.47
2023-05-19T18:28:54.834Z,21.39
2023-05-19T18:31:21.948Z,21.20
2023-05-19T18:33:49.520Z,21.11
2023-05-19T18:36:16.855Z,21.10
2023-05-19T18:38:43.947Z,20.83
2023-05-19T18:41:11.075Z,20.78
2023-05-19T18:43:38.840Z,20.65
2023-05-19T18:46:06.208Z,20.51
2023-05-19T18:48:33.397Z,20.48
2023-05-19T18:51:00.655Z,20.32
2023-05-19T18:53:27.677Z,20.21
2023-05-19T18:55:54.652Z,20.06
2023-05-19T18:58:21.894Z,20.08
2023-05-19T19:00:49.017Z,19.93
2023-05-19T19:03:16.295Z,19.89
2023-05-19T19:05:44.245Z,19.73
2023-05-19T19:08:11.290Z,19.75
2023-05-19T19:10:40.675Z,19.63
2023-05-19T19:13:08.019Z,19.62
2023-05-19T19:15:35.048Z,19.56
2023-05-19T19:18:02.335Z,19.56
2023-05-19T19:20:29.528Z,19.13
2023-05-19T19:22:56.912Z,19.23
2023-05-19T19:25:23.941Z,19.08
2023-05-19T19:27:51.246Z,19.03
2023-05-19T19:30:18.355Z,19.05
2023-05-19T19:32:45.546Z,18.93
2023-05-19T19:35:12.853Z,18.84
2023-05-19T19:37:39.913Z,18.81
2023-05-19T19:42:48.988Z,18.71
2023-05-19T19:45:16.161Z,18.60
2023-05-19T19:47:43.278Z,18.51
2023-05-19T19:50:11.564Z,18.47
2023-05-19T19:52:39.049Z,18.42
2023-05-19T19:55:06.840Z,18.31
2023-05-19T19:57:34.903Z,18.31
2023-05-19T20:00:08.073Z,18.18
2023-05-19T20:02:51.656Z,18.24
2023-05-19T20:05:26.734Z,18.14
2023-05-19T20:07:53.806Z,17.99
2023-05-19T20:10:20.959Z,17.89
2023-05-19T20:12:48.103Z,17.87
2023-05-19T20:15:15.445Z,17.74
2023-05-19T20:17:42.477Z,17.63
2023-05-19T20:20:11.785Z,17.58
2023-05-19T20:22:40.234Z,17.52
2023-05-19T20:25:07.804Z,17.51
2023-05-19T20:27:35.255Z,17.39
2023-05-19T20:30:02.543Z,17.35
2023-05-19T20:32:29.537Z,17.35
2023-05-19T20:34:56.841Z,17.30
2023-05-19T20:37:23.906Z,17.20
2023-05-19T20:39:51.006Z,17.13
2023-05-19T20:42:18.023Z,17.14
2023-05-19T20:44:45.203Z,17.06
2023-05-19T20:47:12.397Z,16.97
2023-05-19T20:49:39.488Z,16.90
2023-05-19T20:52:06.810Z,16.85
2023-05-19T20:54:33.819Z,16.73
2023-05-19T20:57:06.397Z,16.67
2023-05-19T20:59:33.668Z,16.58
2023-05-19T21:02:00.780Z,16.58
2023-05-19T21:04:27.858Z,16.46
2023-05-19T21:06:55.074Z,16.47
2023-05-19T21:09:22.998Z,16.42
2023-05-19T21:11:53.133Z,16.32
2023-05-19T21:14:21.330Z,16.29
2023-05-19T21:16:49.648Z,16.24
2023-05-19T21:19:17.034Z,16.20
2023-05-19T21:21:45.096Z,16.15
2023-05-19T21:24:13.196Z,16.14
2023-05-19T21:26:41.368Z,16.12
2023-05-19T21:29:09.120Z,16.09
2023-05-19T21:31:36.546Z,16.07
2023-05-19T21:34:05.032Z,16.03
2023-05-19T21:36:32.219Z,15.99
2023-05-19T21:38:59.332Z,15.92
2023-05-19T21:41:26.365Z,15.87
2023-05-19T21:43:53.597Z,15.76
2023-05-19T21:46:20.816Z,15.76
2023-05-19T21:48:47.895Z,15.70
2023-05-19T21:51:14.901Z,15.71
2023-05-19T21:53:41.908Z,15.62
2023-05-19T21:56:09.048Z,15.55
2023-05-19T21:58:36.249Z,15.46
2023-05-19T22:01:04.531Z,15.41
2023-05-19T22:03:31.637Z,15.39
2023-05-19T22:05:58.863Z,15.39
2023-05-19T22:08:26.385Z,15.36
2023-05-19T22:10:53.432Z,15.37
2023-05-19T22:13:20.875Z,15.32
2023-05-19T22:15:48.477Z,15.25
2023-05-19T22:18:15.711Z,15.17
2023-05-19T22:20:42.871Z,15.13
2023-05-19T22:23:10.713Z,15.10
2023-05-19T22:25:37.793Z,14.97
2023-05-19T22:28:07.481Z,14.87
2023-05-19T22:30:40.883Z,14.84
2023-05-19T22:33:12.155Z,14.82
2023-05-19T22:35:39.268Z,14.83
2023-05-19T22:38:07.528Z,14.76
2023-05-19T22:40:36.844Z,14.67
2023-05-19T22:43:03.981Z,14.59
2023-05-19T22:45:32.241Z,14.52
2023-05-19T22:47:59.523Z,14.51
2023-05-19T22:50:26.790Z,14.51
2023-05-19T22:52:53.992Z,14.50
2023-05-19T22:55:21.167Z,14.47
2023-05-19T22:57:48.222Z,14.47
2023-05-19T23:00:18.670Z,14.44
2023-05-19T23:02:45.913Z,14.42
2023-05-19T23:05:12.961Z,14.42
2023-05-19T23:07:40.137Z,14.39
2023-05-19T23:10:07.711Z,14.36
2023-05-19T23:12:34.901Z,14.34
2023-05-19T23:15:02.267Z,14.30
2023-05-19T23:17:29.406Z,14.26
2023-05-19T23:19:56.592Z,14.10
2023-05-19T23:22:23.883Z,14.16
2023-05-19T23:24:50.913Z,14.08
2023-05-19T23:27:18.180Z,14.05
2023-05-19T23:29:51.653Z,14.01
2023-05-19T23:32:18.870Z,13.97
2023-05-19T23:34:48.716Z,13.98
2023-05-19T23:37:16.025Z,13.86
2023-05-19T23:39:43.225Z,13.87
2023-05-19T23:42:10.344Z,13.84
2023-05-19T23:44:37.471Z,13.89
2023-05-19T23:47:05.401Z,13.90
2023-05-19T23:49:32.646Z,13.82
2023-05-19T23:51:59.704Z,13.86
2023-05-19T23:54:26.965Z,13.80
2023-05-19T23:56:55.805Z,13.86
2023-05-19T23:59:23.119Z,13.84
